sensor_id;sensor_type;location;lat;lon;timestamp;pressure;altitude;pressure_sealevel;temperature;humidity
45345;BME280;31078;48.304;11.896;2022-12-18T00:02:01;97375.38;;;-5.54;95.51
45345;BME280;31078;48.304;11.896;2022-12-18T00:04:28;97368.84;;;-5.58;95.25
45345;BME280;31078;48.304;11.896;2022-12-18T00:06:55;97361.44;;;-5.62;95.79
45345;BME280;31078;48.304;11.896;2022-12-18T00:09:23;97366.28;;;-5.66;95.84
45345;BME280;31078;48.304;11.896;2022-12-18T00:11:50;97374.88;;;-5.64;96.25
45345;BME280;31078;48.304;11.896;2022-12-18T00:14:16;97387.56;;;-5.59;96.18
45345;BME280;31078;48.304;11.896;2022-12-18T00:16:44;97373.88;;;-5.63;96.59
45345;BME280;31078;48.304;11.896;2022-12-18T00:19:12;97386.75;;;-5.60;96.19
45345;BME280;31078;48.304;11.896;2022-12-18T00:21:39;97391.19;;;-5.67;96.15
45345;BME280;31078;48.304;11.896;2022-12-18T00:24:06;97390.75;;;-5.70;96.48
45345;BME280;31078;48.304;11.896;2022-12-18T00:26:35;97395.88;;;-5.69;96.44
45345;BME280;31078;48.304;11.896;2022-12-18T00:29:04;97396.09;;;-5.64;96.12
45345;BME280;31078;48.304;11.896;2022-12-18T00:31:31;97387.53;;;-5.66;96.31
45345;BME280;31078;48.304;11.896;2022-12-18T00:33:58;97394.47;;;-5.65;96.40
45345;BME280;31078;48.304;11.896;2022-12-18T00:36:26;97403.91;;;-5.62;96.57
45345;BME280;31078;48.304;11.896;2022-12-18T00:38:54;97403.59;;;-5.53;96.23
45345;BME280;31078;48.304;11.896;2022-12-18T00:41:21;97406.81;;;-5.57;95.99
45345;BME280;31078;48.304;11.896;2022-12-18T00:44:04;97407.63;;;-5.57;96.11
45345;BME280;31078;48.304;11.896;2022-12-18T00:46:31;97405.97;;;-5.58;96.44
45345;BME280;31078;48.304;11.896;2022-12-18T00:48:58;97396.25;;;-5.51;96.33
45345;BME280;31078;48.304;11.896;2022-12-18T00:51:25;97391.03;;;-5.59;96.49
45345;BME280;31078;48.304;11.896;2022-12-18T00:53:52;97393.22;;;-5.69;97.00
45345;BME280;31078;48.304;11.896;2022-12-18T00:56:18;97398.03;;;-5.58;96.95
45345;BME280;31078;48.304;11.896;2022-12-18T00:58:45;97400.09;;;-5.53;97.27
45345;BME280;31078;48.304;11.896;2022-12-18T01:01:13;97404.97;;;-5.57;97.51
45345;BME280;31078;48.304;11.896;2022-12-18T01:03:40;97400.16;;;-5.46;97.71
45345;BME280;31078;48.304;11.896;2022-12-18T01:06:07;97404.06;;;-5.42;97.45
45345;BME280;31078;48.304;11.896;2022-12-18T01:08:33;97404.06;;;-5.42;97.56
45345;BME280;31078;48.304;11.896;2022-12-18T01:11:00;97414.53;;;-5.34;97.20
45345;BME280;31078;48.304;11.896;2022-12-18T01:13:27;97415.56;;;-5.35;97.37
45345;BME280;31078;48.304;11.896;2022-12-18T01:15:53;97421.13;;;-5.30;97.64
45345;BME280;31078;48.304;11.896;2022-12-18T01:18:21;97411.78;;;-5.26;97.63
45345;BME280;31078;48.304;11.896;2022-12-18T01:20:48;97413.41;;;-5.25;97.50
45345;BME280;31078;48.304;11.896;2022-12-18T01:23:14;97418.09;;;-5.27;97.54
45345;BME280;31078;48.304;11.896;2022-12-18T01:25:41;97415.03;;;-5.24;97.49
45345;BME280;31078;48.304;11.896;2022-12-18T01:28:07;97414.84;;;-5.22;97.70
45345;BME280;31078;48.304;11.896;2022-12-18T01:30:33;97424.28;;;-5.20;97.68
45345;BME280;31078;48.304;11.896;2022-12-18T01:33:00;97425.91;;;-5.19;97.21
45345;BME280;31078;48.304;11.896;2022-12-18T01:35:28;97425.66;;;-5.24;97.54
45345;BME280;31078;48.304;11.896;2022-12-18T01:37:55;97433.50;;;-5.16;97.54
45345;BME280;31078;48.304;11.896;2022-12-18T01:40:22;97430.59;;;-5.21;97.67
45345;BME280;31078;48.304;11.896;2022-12-18T01:42:50;97439.81;;;-5.17;97.41
45345;BME280;31078;48.304;11.896;2022-12-18T01:45:24;97458.63;;;-5.12;97.58
45345;BME280;31078;48.304;11.896;2022-12-18T01:47:53;97454.41;;;-5.06;97.50
45345;BME280;31078;48.304;11.896;2022-12-18T01:50:22;97465.28;;;-5.01;96.98
45345;BME280;31078;48.304;11.896;2022-12-18T01:52:53;97465.72;;;-4.97;97.15
45345;BME280;31078;48.304;11.896;2022-12-18T01:55:23;97461.22;;;-4.97;97.13
45345;BME280;31078;48.304;11.896;2022-12-18T01:57:52;97472.66;;;-4.96;97.01
45345;BME280;31078;48.304;11.896;2022-12-18T02:00:22;97465.34;;;-4.94;96.66
45345;BME280;31078;48.304;11.896;2022-12-18T02:02:49;97471.50;;;-4.87;96.69
45345;BME280;31078;48.304;11.896;2022-12-18T02:05:18;97473.16;;;-4.86;96.53
45345;BME280;31078;48.304;11.896;2022-12-18T02:07:57;97471.13;;;-4.84;96.29
45345;BME280;31078;48.304;11.896;2022-12-18T02:10:29;97463.78;;;-4.82;96.21
45345;BME280;31078;48.304;11.896;2022-12-18T02:13:04;97455.56;;;-4.87;96.15
45345;BME280;31078;48.304;11.896;2022-12-18T02:15:40;97447.47;;;-4.79;96.25
45345;BME280;31078;48.304;11.896;2022-12-18T02:18:13;97443.78;;;-4.78;96.00
45345;BME280;31078;48.304;11.896;2022-12-18T02:20:45;97442.31;;;-4.81;95.71
45345;BME280;31078;48.304;11.896;2022-12-18T02:23:23;97445.19;;;-4.82;95.45
45345;BME280;31078;48.304;11.896;2022-12-18T02:28:42;97441.66;;;-4.89;95.42
45345;BME280;31078;48.304;11.896;2022-12-18T02:31:13;97442.72;;;-4.84;95.31
45345;BME280;31078;48.304;11.896;2022-12-18T02:33:42;97438.78;;;-4.94;95.09
45345;BME280;31078;48.304;11.896;2022-12-18T02:36:10;97436.97;;;-4.87;95.30
45345;BME280;31078;48.304;11.896;2022-12-18T02:38:41;97434.72;;;-4.90;95.11
45345;BME280;31078;48.304;11.896;2022-12-18T02:41:10;97445.09;;;-4.95;95.26
45345;BME280;31078;48.304;11.896;2022-12-18T02:43:37;97435.94;;;-4.86;94.75
45345;BME280;31078;48.304;11.896;2022-12-18T02:46:24;97447.34;;;-4.92;94.84
45345;BME280;31078;48.304;11.896;2022-12-18T02:48:55;97437.38;;;-4.90;94.99
45345;BME280;31078;48.304;11.896;2022-12-18T02:51:30;97444.50;;;-4.91;95.25
45345;BME280;31078;48.304;11.896;2022-12-18T02:54:03;97441.44;;;-4.94;95.31
45345;BME280;31078;48.304;11.896;2022-12-18T02:56:37;97438.38;;;-4.91;95.38
45345;BME280;31078;48.304;11.896;2022-12-18T02:59:08;97436.78;;;-4.86;95.15
45345;BME280;31078;48.304;11.896;2022-12-18T03:01:43;97434.72;;;-4.90;95.49
45345;BME280;31078;48.304;11.896;2022-12-18T03:04:18;97435.56;;;-4.83;95.50
45345;BME280;31078;48.304;11.896;2022-12-18T03:06:49;97443.16;;;-4.80;95.50
45345;BME280;31078;48.304;11.896;2022-12-18T03:09:21;97447.25;;;-4.78;95.42
45345;BME280;31078;48.304;11.896;2022-12-18T03:11:55;97441.75;;;-4.76;95.21
45345;BME280;31078;48.304;11.896;2022-12-18T03:14:41;97430.75;;;-4.73;95.46
45345;BME280;31078;48.304;11.896;2022-12-18T03:17:14;97434.00;;;-4.71;95.53
45345;BME280;31078;48.304;11.896;2022-12-18T03:19:43;97430.34;;;-4.70;95.30
45345;BME280;31078;48.304;11.896;2022-12-18T03:22:13;97431.56;;;-4.73;95.37
45345;BME280;31078;48.304;11.896;2022-12-18T03:24:41;97429.34;;;-4.69;95.42
45345;BME280;31078;48.304;11.896;2022-12-18T03:27:12;97429.94;;;-4.67;95.45
45345;BME280;31078;48.304;11.896;2022-12-18T03:29:45;97432.84;;;-4.62;95.20
45345;BME280;31078;48.304;11.896;2022-12-18T03:32:16;97432.63;;;-4.67;95.36
45345;BME280;31078;48.304;11.896;2022-12-18T03:34:47;97440.16;;;-4.70;95.74
45345;BME280;31078;48.304;11.896;2022-12-18T03:37:15;97432.41;;;-4.65;95.60
45345;BME280;31078;48.304;11.896;2022-12-18T03:39:41;97435.72;;;-4.63;95.21
45345;BME280;31078;48.304;11.896;2022-12-18T03:42:15;97437.34;;;-4.62;95.25
45345;BME280;31078;48.304;11.896;2022-12-18T03:44:52;97433.78;;;-4.76;95.21
45345;BME280;31078;48.304;11.896;2022-12-18T03:47:26;97437.69;;;-4.72;95.55
45345;BME280;31078;48.304;11.896;2022-12-18T03:49:58;97439.72;;;-4.74;95.55
45345;BME280;31078;48.304;11.896;2022-12-18T03:52:33;97441.38;;;-4.73;95.45
45345;BME280;31078;48.304;11.896;2022-12-18T03:55:02;97437.69;;;-4.72;95.49
45345;BME280;31078;48.304;11.896;2022-12-18T03:57:32;97438.84;;;-4.81;95.11
45345;BME280;31078;48.304;11.896;2022-12-18T04:00:03;97439.50;;;-4.79;95.13
45345;BME280;31078;48.304;11.896;2022-12-18T04:02:31;97438.47;;;-4.78;95.50
45345;BME280;31078;48.304;11.896;2022-12-18T04:05:01;97435.81;;;-4.78;95.71
45345;BME280;31078;48.304;11.896;2022-12-18T04:07:29;97437.63;;;-4.85;95.33
45345;BME280;31078;48.304;11.896;2022-12-18T04:09:58;97437.38;;;-4.90;95.60
45345;BME280;31078;48.304;11.896;2022-12-18T04:12:25;97432.44;;;-4.93;95.80
45345;BME280;31078;48.304;11.896;2022-12-18T04:14:53;97443.69;;;-4.91;95.77
45345;BME280;31078;48.304;11.896;2022-12-18T04:17:19;97446.97;;;-4.89;95.31
45345;BME280;31078;48.304;11.896;2022-12-18T04:19:46;97442.56;;;-5.04;95.69
45345;BME280;31078;48.304;11.896;2022-12-18T04:22:13;97449.78;;;-4.97;95.71
45345;BME280;31078;48.304;11.896;2022-12-18T04:24:39;97458.13;;;-5.01;95.66
45345;BME280;31078;48.304;11.896;2022-12-18T04:27:06;97466.09;;;-5.01;95.91
45345;BME280;31078;48.304;11.896;2022-12-18T04:29:33;97464.19;;;-5.07;95.90
45345;BME280;31078;48.304;11.896;2022-12-18T04:32:01;97460.97;;;-5.02;95.90
45345;BME280;31078;48.304;11.896;2022-12-18T04:34:27;97452.97;;;-5.09;96.15
45345;BME280;31078;48.304;11.896;2022-12-18T04:36:54;97445.19;;;-5.10;95.93
45345;BME280;31078;48.304;11.896;2022-12-18T04:39:20;97448.47;;;-5.08;96.01
45345;BME280;31078;48.304;11.896;2022-12-18T04:41:47;97455.81;;;-5.10;95.74
45345;BME280;31078;48.304;11.896;2022-12-18T04:44:14;97456.13;;;-5.20;96.28
45345;BME280;31078;48.304;11.896;2022-12-18T04:46:40;97457.41;;;-5.16;95.98
45345;BME280;31078;48.304;11.896;2022-12-18T04:49:08;97470.03;;;-5.18;95.93
45345;BME280;31078;48.304;11.896;2022-12-18T04:51:35;97482.28;;;-5.17;96.17
45345;BME280;31078;48.304;11.896;2022-12-18T04:54:02;97488.31;;;-5.08;95.67
45345;BME280;31078;48.304;11.896;2022-12-18T04:56:30;97489.63;;;-5.19;95.48
45345;BME280;31078;48.304;11.896;2022-12-18T04:58:57;97477.81;;;-5.16;95.76
45345;BME280;31078;48.304;11.896;2022-12-18T05:01:24;97475.22;;;-5.10;95.87
45345;BME280;31078;48.304;11.896;2022-12-18T05:03:51;97470.47;;;-5.14;96.01
45345;BME280;31078;48.304;11.896;2022-12-18T05:06:19;97483.56;;;-5.13;96.25
45345;BME280;31078;48.304;11.896;2022-12-18T05:08:45;97481.91;;;-5.14;96.24
45345;BME280;31078;48.304;11.896;2022-12-18T05:11:13;97484.22;;;-5.11;96.06
45345;BME280;31078;48.304;11.896;2022-12-18T05:13:41;97490.50;;;-5.12;96.02
45345;BME280;31078;48.304;11.896;2022-12-18T05:16:08;97484.81;;;-5.09;96.15
45345;BME280;31078;48.304;11.896;2022-12-18T05:18:35;97479.88;;;-5.12;96.37
45345;BME280;31078;48.304;11.896;2022-12-18T05:21:01;97488.38;;;-5.23;96.35
45345;BME280;31078;48.304;11.896;2022-12-18T05:23:29;97491.28;;;-5.18;96.03
45345;BME280;31078;48.304;11.896;2022-12-18T05:25:59;97487.22;;;-5.14;96.04
45345;BME280;31078;48.304;11.896;2022-12-18T05:28:28;97481.16;;;-5.08;96.23
45345;BME280;31078;48.304;11.896;2022-12-18T05:30:57;97482.03;;;-5.01;96.17
45345;BME280;31078;48.304;11.896;2022-12-18T05:33:25;97485.84;;;-5.10;96.01
45345;BME280;31078;48.304;11.896;2022-12-18T05:35:53;97495.50;;;-5.02;96.08
45345;BME280;31078;48.304;11.896;2022-12-18T05:38:20;97493.81;;;-5.10;95.85
45345;BME280;31078;48.304;11.896;2022-12-18T05:40:49;97491.84;;;-5.01;95.88
45345;BME280;31078;48.304;11.896;2022-12-18T05:43:16;97495.50;;;-5.02;95.96
45345;BME280;31078;48.304;11.896;2022-12-18T05:45:42;97499.66;;;-4.93;95.66
45345;BME280;31078;48.304;11.896;2022-12-18T05:48:13;97504.88;;;-5.06;95.38
45345;BME280;31078;48.304;11.896;2022-12-18T05:50:41;97510.56;;;-5.09;95.44
45345;BME280;31078;48.304;11.896;2022-12-18T05:53:09;97505.56;;;-5.19;95.41
45345;BME280;31078;48.304;11.896;2022-12-18T05:55:36;97500.25;;;-5.19;95.81
45345;BME280;31078;48.304;11.896;2022-12-18T05:58:07;97510.88;;;-5.19;95.78
45345;BME280;31078;48.304;11.896;2022-12-18T06:00:36;97517.22;;;-5.20;95.60
45345;BME280;31078;48.304;11.896;2022-12-18T06:03:05;97512.25;;;-5.23;95.25
45345;BME280;31078;48.304;11.896;2022-12-18T06:05:34;97526.69;;;-5.32;95.36
45345;BME280;31078;48.304;11.896;2022-12-18T06:08:01;97526.25;;;-5.36;95.53
45345;BME280;31078;48.304;11.896;2022-12-18T06:10:28;97531.81;;;-5.31;95.12
45345;BME280;31078;48.304;11.896;2022-12-18T06:12:55;97538.13;;;-5.32;95.24
45345;BME280;31078;48.304;11.896;2022-12-18T06:15:23;97529.09;;;-5.37;95.16
45345;BME280;31078;48.304;11.896;2022-12-18T06:17:50;97531.50;;;-5.42;95.48
45345;BME280;31078;48.304;11.896;2022-12-18T06:20:16;97531.09;;;-5.39;95.35
45345;BME280;31078;48.304;11.896;2022-12-18T06:22:43;97535.38;;;-5.38;95.53
45345;BME280;31078;48.304;11.896;2022-12-18T06:25:10;97536.03;;;-5.36;95.28
45345;BME280;31078;48.304;11.896;2022-12-18T06:27:37;97532.47;;;-5.43;95.20
45345;BME280;31078;48.304;11.896;2022-12-18T06:30:04;97529.81;;;-5.43;95.21
45345;BME280;31078;48.304;11.896;2022-12-18T06:32:32;97532.47;;;-5.43;95.24
45345;BME280;31078;48.304;11.896;2022-12-18T06:34:59;97524.16;;;-5.40;95.34
45345;BME280;31078;48.304;11.896;2022-12-18T06:37:25;97529.91;;;-5.37;95.03
45345;BME280;31078;48.304;11.896;2022-12-18T06:39:52;97529.53;;;-5.34;94.97
45345;BME280;31078;48.304;11.896;2022-12-18T06:42:19;97538.03;;;-5.38;94.99
45345;BME280;31078;48.304;11.896;2022-12-18T06:44:45;97541.34;;;-5.36;95.23
45345;BME280;31078;48.304;11.896;2022-12-18T06:47:11;97550.13;;;-5.36;95.02
45345;BME280;31078;48.304;11.896;2022-12-18T06:49:39;97554.78;;;-5.38;94.97
45345;BME280;31078;48.304;11.896;2022-12-18T06:52:06;97560.19;;;-5.31;94.85
45345;BME280;31078;48.304;11.896;2022-12-18T06:54:32;97561.22;;;-5.32;94.95
45345;BME280;31078;48.304;11.896;2022-12-18T06:56:59;97563.09;;;-5.26;94.58
45345;BME280;31078;48.304;11.896;2022-12-18T06:59:25;97561.47;;;-5.27;94.60
45345;BME280;31078;48.304;11.896;2022-12-18T07:01:52;97566.38;;;-5.24;94.61
45345;BME280;31078;48.304;11.896;2022-12-18T07:04:18;97569.69;;;-5.22;94.58
45345;BME280;31078;48.304;11.896;2022-12-18T07:06:46;97568.41;;;-5.26;94.10
45345;BME280;31078;48.304;11.896;2022-12-18T07:09:13;97571.69;;;-5.24;94.15
45345;BME280;31078;48.304;11.896;2022-12-18T07:11:39;97570.06;;;-5.25;94.42
45345;BME280;31078;48.304;11.896;2022-12-18T07:14:06;97566.53;;;-5.32;94.61
45345;BME280;31078;48.304;11.896;2022-12-18T07:16:32;97575.31;;;-5.32;94.57
45345;BME280;31078;48.304;11.896;2022-12-18T07:18:59;97579.78;;;-5.32;94.71
45345;BME280;31078;48.304;11.896;2022-12-18T07:21:25;97588.56;;;-5.32;94.77
45345;BME280;31078;48.304;11.896;2022-12-18T07:23:53;97589.75;;;-5.34;95.01
45345;BME280;31078;48.304;11.896;2022-12-18T07:26:21;97591.78;;;-5.36;95.19
45345;BME280;31078;48.304;11.896;2022-12-18T07:28:48;97597.38;;;-5.31;95.28
45345;BME280;31078;48.304;11.896;2022-12-18T07:31:18;97603.03;;;-5.34;95.06
45345;BME280;31078;48.304;11.896;2022-12-18T07:33:46;97582.44;;;-5.32;95.06
45345;BME280;31078;48.304;11.896;2022-12-18T07:36:13;97591.41;;;-5.33;95.13
45345;BME280;31078;48.304;11.896;2022-12-18T07:38:40;97593.06;;;-5.32;95.30
45345;BME280;31078;48.304;11.896;2022-12-18T07:41:09;97592.47;;;-5.28;95.18
45345;BME280;31078;48.304;11.896;2022-12-18T07:43:37;97599.06;;;-5.23;95.12
45345;BME280;31078;48.304;11.896;2022-12-18T07:46:05;97602.19;;;-5.20;95.20
45345;BME280;31078;48.304;11.896;2022-12-18T07:48:32;97602.53;;;-5.23;94.97
45345;BME280;31078;48.304;11.896;2022-12-18T07:50:59;97604.09;;;-5.14;95.03
45345;BME280;31078;48.304;11.896;2022-12-18T07:53:26;97608.28;;;-5.05;94.55
45345;BME280;31078;48.304;11.896;2022-12-18T07:55:55;97603.97;;;-5.06;94.27
45345;BME280;31078;48.304;11.896;2022-12-18T07:58:23;97595.91;;;-5.12;93.19
45345;BME280;31078;48.304;11.896;2022-12-18T08:00:50;97590.94;;;-5.22;92.47
45345;BME280;31078;48.304;11.896;2022-12-18T08:03:17;97596.41;;;-5.23;92.49
45345;BME280;31078;48.304;11.896;2022-12-18T08:05:44;97602.19;;;-5.20;92.61
45345;BME280;31078;48.304;11.896;2022-12-18T08:08:11;97595.41;;;-5.22;92.38
45345;BME280;31078;48.304;11.896;2022-12-18T08:10:37;97589.50;;;-5.39;92.63
45345;BME280;31078;48.304;11.896;2022-12-18T08:13:04;97593.69;;;-5.30;92.12
45345;BME280;31078;48.304;11.896;2022-12-18T08:15:32;97598.00;;;-5.29;92.88
45345;BME280;31078;48.304;11.896;2022-12-18T08:17:59;97596.09;;;-5.35;93.04
45345;BME280;31078;48.304;11.896;2022-12-18T08:20:25;97596.53;;;-5.32;92.38
45345;BME280;31078;48.304;11.896;2022-12-18T08:22:52;97602.03;;;-5.33;92.19
45345;BME280;31078;48.304;11.896;2022-12-18T08:25:19;97609.34;;;-5.35;91.68
45345;BME280;31078;48.304;11.896;2022-12-18T08:27:46;97615.69;;;-5.36;91.72
45345;BME280;31078;48.304;11.896;2022-12-18T08:30:13;97616.13;;;-5.33;91.80
45345;BME280;31078;48.304;11.896;2022-12-18T08:32:41;97631.22;;;-5.33;91.70
45345;BME280;31078;48.304;11.896;2022-12-18T08:35:08;97627.59;;;-5.32;91.32
45345;BME280;31078;48.304;11.896;2022-12-18T08:37:37;97625.47;;;-5.37;91.41
45345;BME280;31078;48.304;11.896;2022-12-18T08:40:04;97619.44;;;-5.31;91.42
45345;BME280;31078;48.304;11.896;2022-12-18T08:42:34;97618.22;;;-5.28;91.10
45345;BME280;31078;48.304;11.896;2022-12-18T08:45:18;97625.19;;;-5.27;91.02
45345;BME280;31078;48.304;11.896;2022-12-18T08:47:46;97628.31;;;-5.38;90.83
45345;BME280;31078;48.304;11.896;2022-12-18T08:50:12;97629.66;;;-5.28;90.09
45345;BME280;31078;48.304;11.896;2022-12-18T08:52:40;97628.22;;;-5.30;90.04
45345;BME280;31078;48.304;11.896;2022-12-18T08:55:08;97633.72;;;-5.32;90.51
45345;BME280;31078;48.304;11.896;2022-12-18T08:57:35;97649.09;;;-5.27;90.62
45345;BME280;31078;48.304;11.896;2022-12-18T09:00:01;97646.31;;;-5.19;90.68
45345;BME280;31078;48.304;11.896;2022-12-18T09:02:28;97649.44;;;-5.15;90.71
45345;BME280;31078;48.304;11.896;2022-12-18T09:04:56;97643.28;;;-5.16;90.83
45345;BME280;31078;48.304;11.896;2022-12-18T09:07:23;97648.22;;;-5.13;90.71
45345;BME280;31078;48.304;11.896;2022-12-18T09:09:50;97648.88;;;-5.11;90.75
45345;BME280;31078;48.304;11.896;2022-12-18T09:12:16;97642.16;;;-5.07;90.13
45345;BME280;31078;48.304;11.896;2022-12-18T09:14:43;97638.13;;;-5.03;90.31
45345;BME280;31078;48.304;11.896;2022-12-18T09:17:10;97643.97;;;-5.07;89.28
45345;BME280;31078;48.304;11.896;2022-12-18T09:19:36;97644.44;;;-5.04;89.26
45345;BME280;31078;48.304;11.896;2022-12-18T09:22:04;97641.84;;;-4.97;89.50
45345;BME280;31078;48.304;11.896;2022-12-18T09:24:31;97632.81;;;-5.03;89.53
45345;BME280;31078;48.304;11.896;2022-12-18T09:26:58;97649.25;;;-4.92;89.64
45345;BME280;31078;48.304;11.896;2022-12-18T09:29:24;97634.97;;;-4.91;89.54
45345;BME280;31078;48.304;11.896;2022-12-18T09:31:51;97633.22;;;-4.84;89.25
45345;BME280;31078;48.304;11.896;2022-12-18T09:34:17;97641.19;;;-4.84;88.95
45345;BME280;31078;48.304;11.896;2022-12-18T09:36:46;97629.66;;;-4.91;89.10
45345;BME280;31078;48.304;11.896;2022-12-18T09:39:14;97635.41;;;-4.88;89.40
45345;BME280;31078;48.304;11.896;2022-12-18T09:41:43;97641.19;;;-4.84;89.64
45345;BME280;31078;48.304;11.896;2022-12-18T09:44:15;97648.25;;;-4.70;89.69
45345;BME280;31078;48.304;11.896;2022-12-18T09:46:45;97635.63;;;-4.68;89.75
45345;BME280;31078;48.304;11.896;2022-12-18T09:49:16;97633.66;;;-4.59;89.30
45345;BME280;31078;48.304;11.896;2022-12-18T09:51:47;97630.75;;;-4.64;88.82
45345;BME280;31078;48.304;11.896;2022-12-18T09:54:21;97622.19;;;-4.60;88.86
45345;BME280;31078;48.304;11.896;2022-12-18T09:56:48;97629.53;;;-4.62;89.12
45345;BME280;31078;48.304;11.896;2022-12-18T09:59:21;97623.19;;;-4.61;88.64
45345;BME280;31078;48.304;11.896;2022-12-18T10:01:49;97618.78;;;-4.54;88.82
45345;BME280;31078;48.304;11.896;2022-12-18T10:04:16;97613.22;;;-4.59;89.16
45345;BME280;31078;48.304;11.896;2022-12-18T10:06:45;97602.22;;;-4.49;88.48
45345;BME280;31078;48.304;11.896;2022-12-18T10:09:19;97596.75;;;-4.48;88.74
45345;BME280;31078;48.304;11.896;2022-12-18T10:11:53;97587.50;;;-4.52;88.87
45345;BME280;31078;48.304;11.896;2022-12-18T10:14:27;97586.94;;;-4.47;88.84
45345;BME280;31078;48.304;11.896;2022-12-18T10:17:02;97581.91;;;-4.35;89.08
45345;BME280;31078;48.304;11.896;2022-12-18T10:19:37;97580.50;;;-4.31;89.44
45345;BME280;31078;48.304;11.896;2022-12-18T10:22:15;97581.75;;;-4.27;89.29
45345;BME280;31078;48.304;11.896;2022-12-18T10:24:52;97573.25;;;-4.16;89.50
45345;BME280;31078;48.304;11.896;2022-12-18T10:27:23;97565.28;;;-4.09;89.21
45345;BME280;31078;48.304;11.896;2022-12-18T10:29:51;97570.25;;;-4.06;88.34
45345;BME280;31078;48.304;11.896;2022-12-18T10:32:21;97568.41;;;-4.06;88.09
45345;BME280;31078;48.304;11.896;2022-12-18T10:34:49;97570.28;;;-4.00;88.49
45345;BME280;31078;48.304;11.896;2022-12-18T10:37:18;97572.34;;;-3.95;88.25
45345;BME280;31078;48.304;11.896;2022-12-18T10:40:06;97574.44;;;-3.90;88.15
45345;BME280;31078;48.304;11.896;2022-12-18T10:42:33;97578.53;;;-3.81;88.49
45345;BME280;31078;48.304;11.896;2022-12-18T10:45:03;97577.72;;;-3.82;87.97
45345;BME280;31078;48.304;11.896;2022-12-18T10:47:29;97571.34;;;-3.87;86.66
45345;BME280;31078;48.304;11.896;2022-12-18T10:49:56;97575.28;;;-3.83;86.66
45345;BME280;31078;48.304;11.896;2022-12-18T10:52:24;97569.97;;;-3.77;86.45
45345;BME280;31078;48.304;11.896;2022-12-18T10:54:55;97584.19;;;-3.98;85.96
45345;BME280;31078;48.304;11.896;2022-12-18T10:57:33;97579.50;;;-3.96;86.61
45345;BME280;31078;48.304;11.896;2022-12-18T11:00:20;97582.56;;;-3.99;86.96
45345;BME280;31078;48.304;11.896;2022-12-18T11:02:47;97581.34;;;-3.96;87.51
45345;BME280;31078;48.304;11.896;2022-12-18T11:05:24;97572.78;;;-3.91;88.05
45345;BME280;31078;48.304;11.896;2022-12-18T11:07:52;97571.91;;;-3.99;88.10
45345;BME280;31078;48.304;11.896;2022-12-18T11:10:22;97569.47;;;-3.94;87.94
45345;BME280;31078;48.304;11.896;2022-12-18T11:12:49;97564.13;;;-4.00;88.07
45345;BME280;31078;48.304;11.896;2022-12-18T11:15:19;97568.53;;;-4.14;88.12
45345;BME280;31078;48.304;11.896;2022-12-18T11:17:48;97562.06;;;-4.05;88.74
45345;BME280;31078;48.304;11.896;2022-12-18T11:20:29;97580.13;;;-3.94;88.25
45345;BME280;31078;48.304;11.896;2022-12-18T11:22:58;97576.50;;;-3.86;88.20
45345;BME280;31078;48.304;11.896;2022-12-18T11:25:28;97571.19;;;-3.79;88.48
45345;BME280;31078;48.304;11.896;2022-12-18T11:27:56;97581.06;;;-3.73;88.39
45345;BME280;31078;48.304;11.896;2022-12-18T11:30:26;97588.03;;;-3.72;88.27
45345;BME280;31078;48.304;11.896;2022-12-18T11:32:56;97579.44;;;-3.68;88.25
45345;BME280;31078;48.304;11.896;2022-12-18T11:35:32;97582.53;;;-3.64;87.85
45345;BME280;31078;48.304;11.896;2022-12-18T11:38:06;97580.91;;;-3.65;86.77
45345;BME280;31078;48.304;11.896;2022-12-18T11:40:40;97587.22;;;-3.66;87.53
45345;BME280;31078;48.304;11.896;2022-12-18T11:43:10;97580.44;;;-3.75;87.20
45345;BME280;31078;48.304;11.896;2022-12-18T11:45:42;97576.13;;;-3.76;87.29
45345;BME280;31078;48.304;11.896;2022-12-18T11:48:15;97571.25;;;-3.66;86.99
45345;BME280;31078;48.304;11.896;2022-12-18T11:50:44;97565.31;;;-3.68;86.98
45345;BME280;31078;48.304;11.896;2022-12-18T11:53:12;97559.16;;;-3.69;86.83
45345;BME280;31078;48.304;11.896;2022-12-18T11:55:47;97566.69;;;-3.79;86.40
45345;BME280;31078;48.304;11.896;2022-12-18T11:58:24;97567.50;;;-3.85;86.06
45345;BME280;31078;48.304;11.896;2022-12-18T12:01:03;97559.47;;;-3.91;86.54
45345;BME280;31078;48.304;11.896;2022-12-18T12:06:43;97566.03;;;-3.87;86.69
45345;BME280;31078;48.304;11.896;2022-12-18T12:09:17;97560.06;;;-3.96;86.71
45345;BME280;31078;48.304;11.896;2022-12-18T12:11:58;97556.38;;;-3.95;86.91
45345;BME280;31078;48.304;11.896;2022-12-18T12:14:40;97553.75;;;-3.88;86.98
45345;BME280;31078;48.304;11.896;2022-12-18T12:17:11;97553.97;;;-3.83;86.29
45345;BME280;31078;48.304;11.896;2022-12-18T12:19:48;97549.03;;;-3.86;86.29
45345;BME280;31078;48.304;11.896;2022-12-18T12:22:24;97547.16;;;-3.99;86.75
45345;BME280;31078;48.304;11.896;2022-12-18T12:25:03;97541.63;;;-3.98;87.27
45345;BME280;31078;48.304;11.896;2022-12-18T12:27:36;97541.03;;;-3.93;86.87
45345;BME280;31078;48.304;11.896;2022-12-18T12:30:08;97527.94;;;-3.95;86.79
45345;BME280;31078;48.304;11.896;2022-12-18T12:32:49;97534.44;;;-4.04;86.86
45345;BME280;31078;48.304;11.896;2022-12-18T12:35:25;97529.34;;;-3.99;86.70
45345;BME280;31078;48.304;11.896;2022-12-18T12:38:03;97527.50;;;-3.98;86.97
45345;BME280;31078;48.304;11.896;2022-12-18T12:40:34;97521.13;;;-4.04;87.17
45345;BME280;31078;48.304;11.896;2022-12-18T12:43:07;97524.44;;;-4.02;87.46
45345;BME280;31078;48.304;11.896;2022-12-18T12:45:42;97523.19;;;-3.99;87.30
45345;BME280;31078;48.304;11.896;2022-12-18T12:48:17;97522.38;;;-4.00;87.81
45345;BME280;31078;48.304;11.896;2022-12-18T12:50:46;97516.69;;;-3.97;88.16
45345;BME280;31078;48.304;11.896;2022-12-18T12:53:21;97522.38;;;-4.00;87.54
45345;BME280;31078;48.304;11.896;2022-12-18T12:55:48;97523.22;;;-3.92;87.57
45345;BME280;31078;48.304;11.896;2022-12-18T12:58:24;97519.97;;;-3.88;87.55
45345;BME280;31078;48.304;11.896;2022-12-18T13:01:01;97528.97;;;-3.96;88.29
45345;BME280;31078;48.304;11.896;2022-12-18T13:03:36;97531.38;;;-4.01;87.86
45345;BME280;31078;48.304;11.896;2022-12-18T13:06:12;97528.50;;;-4.06;87.89
45345;BME280;31078;48.304;11.896;2022-12-18T13:09:00;97529.34;;;-3.99;88.16